createdAt,value
2022-11-16T04:57:31.227Z,36.00
2022-11-16T05:00:34.046Z,36.55
2022-11-16T05:03:36.165Z,34.88
2022-11-16T05:06:39.291Z,37.13
2022-11-16T05:09:43.694Z,36.25
2022-11-16T05:12:46.767Z,34.88
2022-11-16T05:15:49.113Z,34.78
2022-11-16T05:19:10.346Z,36.40
2022-11-16T05:22:12.835Z,34.15
2022-11-16T05:25:15.540Z,34.15
2022-11-16T05:28:17.657Z,37.30
2022-11-16T05:31:19.935Z,34.83
2022-11-16T05:34:23.273Z,35.08
2022-11-16T05:37:26.733Z,32.50
2022-11-16T05:40:28.953Z,35.25
2022-11-16T05:43:31.412Z,34.63
2022-11-16T05:46:34.952Z,35.10
2022-11-16T05:49:37.571Z,35.75
2022-11-16T05:52:40.141Z,33.92
2022-11-16T05:55:43.196Z,35.42
2022-11-16T05:58:46.153Z,35.22
2022-11-16T06:01:50.069Z,35.05
2022-11-16T06:04:52.601Z,34.47
2022-11-16T06:07:56.193Z,33.65
2022-11-16T06:11:03.484Z,34.38
2022-11-16T06:14:06.204Z,35.65
2022-11-16T06:17:10.253Z,36.78
2022-11-16T06:20:12.546Z,35.83
2022-11-16T06:23:15.282Z,35.63
2022-11-16T06:26:17.374Z,34.05
2022-11-16T06:29:20.378Z,37.13
2022-11-16T06:32:22.424Z,35.25
2022-11-16T06:35:25.053Z,36.83
2022-11-16T06:38:28.531Z,36.13
2022-11-16T06:41:32.080Z,37.45
2022-11-16T06:44:34.323Z,34.58
2022-11-16T06:47:37.049Z,35.35
2022-11-16T06:50:39.396Z,37.22
2022-11-16T06:53:41.904Z,38.50
2022-11-16T06:56:44.112Z,37.10
2022-11-16T06:59:46.680Z,38.33
2022-11-16T07:02:49.177Z,40.40
2022-11-16T07:05:52.303Z,38.17
2022-11-16T07:08:55.246Z,36.30
2022-11-16T07:11:58.377Z,37.58
2022-11-16T07:15:00.548Z,36.08
2022-11-16T07:18:05.569Z,40.33
2022-11-16T07:21:11.324Z,41.83
2022-11-16T07:24:13.885Z,39.95
2022-11-16T07:27:18.141Z,37.50
2022-11-16T07:30:20.846Z,37.70
2022-11-16T07:33:23.160Z,38.58
2022-11-16T07:36:27.525Z,38.85
2022-11-16T07:39:29.713Z,35.33
2022-11-16T07:42:32.763Z,37.95
2022-11-16T07:45:35.183Z,36.50
2022-11-16T07:48:40.389Z,38.75
2022-11-16T07:51:47.642Z,38.05
2022-11-16T07:54:51.579Z,37.28
2022-11-16T07:57:53.942Z,38.75
2022-11-16T08:01:07.014Z,37.55
2022-11-16T08:04:09.700Z,37.00
2022-11-16T08:07:12.013Z,36.25
2022-11-16T08:10:15.156Z,37.92
2022-11-16T08:13:17.290Z,37.05
2022-11-16T08:16:21.676Z,39.50
2022-11-16T08:19:24.906Z,37.35
2022-11-16T08:22:28.079Z,39.42
2022-11-16T08:25:30.269Z,39.08
2022-11-16T08:28:33.905Z,39.70
2022-11-16T08:31:36.129Z,38.10
2022-11-16T08:34:39.804Z,39.15
2022-11-16T08:37:41.969Z,40.90
2022-11-16T08:40:45.828Z,39.05
2022-11-16T08:43:50.394Z,39.10
2022-11-16T08:46:53.013Z,37.40
2022-11-16T08:49:55.908Z,39.47
2022-11-16T08:53:00.613Z,41.03
2022-11-16T08:56:04.597Z,37.28
2022-11-16T08:59:07.193Z,40.83
2022-11-16T09:02:10.131Z,39.17
2022-11-16T09:05:12.948Z,39.92
2022-11-16T09:08:15.452Z,37.97
2022-11-16T09:11:20.280Z,39.92
2022-11-16T09:14:22.395Z,40.40
2022-11-16T09:17:24.690Z,39.60
2022-11-16T09:20:26.758Z,40.03
2022-11-16T09:23:29.068Z,38.67
2022-11-16T09:26:31.140Z,38.85
2022-11-16T09:29:34.604Z,38.33
2022-11-16T09:32:36.659Z,38.20
2022-11-16T09:35:40.167Z,37.25
2022-11-16T09:39:19.007Z,36.83
2022-11-16T09:42:30.209Z,37.92
2022-11-16T09:45:49.875Z,40.45
2022-11-16T09:48:56.351Z,39.53
2022-11-16T09:55:24.828Z,36.17
2022-11-16T09:58:49.659Z,39.05
2022-11-16T10:01:58.497Z,38.43
2022-11-16T10:05:25.878Z,37.40
2022-11-16T10:08:44.767Z,36.60
2022-11-16T10:12:09.003Z,37.75
2022-11-16T10:15:23.753Z,36.50
2022-11-16T10:18:41.543Z,35.90
2022-11-16T10:22:22.815Z,38.22
2022-11-16T10:25:32.929Z,37.22
2022-11-16T10:28:51.784Z,35.75
2022-11-16T10:32:07.124Z,36.55
2022-11-16T10:35:11.877Z,37.40
2022-11-16T10:38:21.587Z,36.70
2022-11-16T10:42:06.100Z,31.98
2022-11-16T10:45:21.703Z,35.45
2022-11-16T10:48:29.224Z,35.15
2022-11-16T10:51:31.512Z,35.08
2022-11-16T10:54:33.544Z,37.58
2022-11-16T10:57:56.497Z,34.05
2022-11-16T11:00:59.118Z,34.33
2022-11-16T11:04:22.189Z,35.58
2022-11-16T11:07:33.170Z,34.53
2022-11-16T11:10:40.570Z,32.88
2022-11-16T11:13:42.627Z,34.63
2022-11-16T11:16:45.083Z,33.20
2022-11-16T11:19:56.434Z,33.67
2022-11-16T11:23:02.468Z,34.35
2022-11-16T11:26:05.359Z,34.63
2022-11-16T11:29:20.844Z,34.85
2022-11-16T11:32:30.758Z,34.85
2022-11-16T11:35:33.057Z,33.80
2022-11-16T11:38:57.482Z,34.42
2022-11-16T11:42:02.590Z,35.00
2022-11-16T11:45:13.648Z,33.80
2022-11-16T11:48:28.032Z,33.83
2022-11-16T11:51:41.045Z,33.72
2022-11-16T11:54:47.705Z,33.60
2022-11-16T12:01:13.607Z,34.88
2022-11-16T12:04:42.443Z,34.85
2022-11-16T12:07:50.580Z,33.90
2022-11-16T12:10:57.627Z,33.80
2022-11-16T12:14:15.212Z,34.58
2022-11-16T12:17:54.425Z,34.05
2022-11-16T12:21:13.386Z,32.75
2022-11-16T12:24:27.196Z,32.55
2022-11-16T12:27:46.861Z,32.25
2022-11-16T12:31:10.248Z,34.10
2022-11-16T12:34:39.345Z,30.42
2022-11-16T12:38:12.522Z,30.05
2022-11-16T12:41:26.388Z,29.17
2022-11-16T12:45:17.185Z,29.10
2022-11-16T12:48:47.705Z,28.58
2022-11-16T12:51:56.223Z,30.08
2022-11-16T12:55:36.553Z,30.83
2022-11-16T12:58:53.361Z,29.65
2022-11-16T13:02:04.774Z,27.62
2022-11-16T13:05:23.204Z,27.02
2022-11-16T13:08:50.609Z,26.70
2022-11-16T13:11:58.098Z,27.60
2022-11-16T13:15:02.835Z,26.20
2022-11-16T13:18:15.648Z,26.85
2022-11-16T13:21:29.549Z,27.73
2022-11-16T13:24:46.709Z,23.67
2022-11-16T13:28:14.483Z,26.33
2022-11-16T13:31:32.001Z,25.83
2022-11-16T13:34:38.000Z,24.12
2022-11-16T13:37:40.323Z,25.02
2022-11-16T13:40:42.751Z,25.42
2022-11-16T13:43:49.189Z,24.98
2022-11-16T13:46:56.888Z,25.35
2022-11-16T13:50:02.028Z,25.33
2022-11-16T13:56:51.320Z,21.55
2022-11-16T14:00:02.801Z,24.55
2022-11-16T14:03:28.042Z,23.70
2022-11-16T14:06:30.239Z,22.67
2022-11-16T14:09:47.915Z,21.55
2022-11-16T14:12:52.787Z,21.95
2022-11-16T14:16:19.732Z,23.85
2022-11-16T14:19:48.505Z,21.67
2022-11-16T14:23:15.221Z,20.33
2022-11-16T14:26:39.356Z,22.50
2022-11-16T14:30:02.482Z,20.17
2022-11-16T14:33:04.779Z,22.02
2022-11-16T14:36:09.287Z,19.77
2022-11-16T14:39:31.565Z,18.02
2022-11-16T14:43:09.881Z,17.27
2022-11-16T14:46:35.884Z,16.30
2022-11-16T14:49:46.915Z,15.60
2022-11-16T14:52:52.433Z,16.42
2022-11-16T14:56:06.433Z,16.60
2022-11-16T14:59:16.543Z,16.70
2022-11-16T15:02:27.276Z,15.18
2022-11-16T15:05:34.758Z,16.23
2022-11-16T15:08:48.045Z,18.33
2022-11-16T15:12:10.383Z,16.25
2022-11-16T15:15:12.437Z,17.40
2022-11-16T15:18:20.499Z,18.87
2022-11-16T15:21:23.311Z,18.98
2022-11-16T15:24:31.506Z,17.62
2022-11-16T15:27:38.377Z,18.33
2022-11-16T15:30:41.381Z,19.35
2022-11-16T15:33:45.216Z,18.70
2022-11-16T15:36:48.681Z,18.73
2022-11-16T15:39:50.726Z,19.33
2022-11-16T15:42:53.640Z,19.67
2022-11-16T15:45:56.099Z,19.00
2022-11-16T15:48:59.041Z,19.70
2022-11-16T15:52:01.639Z,18.55
2022-11-16T15:55:04.172Z,19.80
2022-11-16T15:58:14.765Z,19.75
2022-11-16T16:01:17.725Z,20.42
2022-11-16T16:04:20.618Z,20.10
2022-11-16T16:07:42.276Z,20.27
2022-11-16T16:10:44.677Z,20.90
2022-11-16T16:14:02.023Z,18.62
2022-11-16T16:17:04.352Z,18.77
2022-11-16T16:20:07.530Z,19.98
2022-11-16T16:23:16.180Z,19.33
2022-11-16T16:26:18.288Z,20.12
2022-11-16T16:29:20.594Z,18.95
2022-11-16T16:32:36.767Z,20.37
2022-11-16T16:35:39.060Z,18.27
2022-11-16T16:38:41.460Z,17.10
2022-11-16T16:41:43.772Z,16.92
2022-11-16T16:44:47.276Z,18.00
2022-11-16T16:47:49.693Z,16.48
2022-11-16T16:50:51.810Z,17.33
